sensor_id;sensor_type;location;lat;lon;timestamp;pressure;altitude;pressure_sealevel;temperature;humidity
48530;BME280;34927;37.302;-121.982;2023-04-05T00:00:02;101511.0;;;23.34;23.67
48530;BME280;34927;37.302;-121.982;2023-04-05T00:01:06;101506.0;;;23.32;23.66
48530;BME280;34927;37.302;-121.982;2023-04-05T00:02:11;101505.0;;;23.32;23.63
48530;BME280;34927;37.302;-121.982;2023-04-05T00:03:16;101506.0;;;23.37;23.48
48530;BME280;34927;37.302;-121.982;2023-04-05T00:04:21;101510.0;;;23.37;23.53
48530;BME280;34927;37.302;-121.982;2023-04-05T00:05:27;101509.0;;;23.33;23.57
48530;BME280;34927;37.302;-121.982;2023-04-05T00:06:33;101512.0;;;23.34;23.56
48530;BME280;34927;37.302;-121.982;2023-04-05T00:07:37;101518.0;;;23.38;23.52
48530;BME280;34927;37.302;-121.982;2023-04-05T00:08:41;101516.0;;;23.41;23.51
48530;BME280;34927;37.302;-121.982;2023-04-05T00:09:48;101517.0;;;23.39;23.51
48530;BME280;34927;37.302;-121.982;2023-04-05T00:10:52;101515.0;;;23.40;23.55
48530;BME280;34927;37.302;-121.982;2023-04-05T00:11:57;101509.0;;;23.42;23.46
48530;BME280;34927;37.302;-121.982;2023-04-05T00:13:02;101503.0;;;23.40;23.42
48530;BME280;34927;37.302;-121.982;2023-04-05T00:14:06;101503.0;;;23.43;23.46
48530;BME280;34927;37.302;-121.982;2023-04-05T00:15:12;101506.0;;;23.40;23.48
48530;BME280;34927;37.302;-121.982;2023-04-05T00:16:18;101505.0;;;23.44;23.37
48530;BME280;34927;37.302;-121.982;2023-04-05T00:17:21;101507.0;;;23.39;23.44
48530;BME280;34927;37.302;-121.982;2023-04-05T00:18:26;101509.0;;;23.34;23.47
48530;BME280;34927;37.302;-121.982;2023-04-05T00:19:31;101506.0;;;23.38;23.53
48530;BME280;34927;37.302;-121.982;2023-04-05T00:20:36;101508.0;;;23.42;23.44
48530;BME280;34927;37.302;-121.982;2023-04-05T00:21:41;101504.0;;;23.35;23.51
48530;BME280;34927;37.302;-121.982;2023-04-05T00:22:47;101505.0;;;23.32;23.59
48530;BME280;34927;37.302;-121.982;2023-04-05T00:23:53;101506.0;;;23.34;23.57
48530;BME280;34927;37.302;-121.982;2023-04-05T00:24:56;101504.0;;;23.35;23.57
48530;BME280;34927;37.302;-121.982;2023-04-05T00:26:01;101505.0;;;23.36;23.68
48530;BME280;34927;37.302;-121.982;2023-04-05T00:27:07;101504.0;;;23.36;23.60
48530;BME280;34927;37.302;-121.982;2023-04-05T00:28:12;101501.0;;;23.35;23.57
48530;BME280;34927;37.302;-121.982;2023-04-05T00:29:17;101502.0;;;23.40;23.61
48530;BME280;34927;37.302;-121.982;2023-04-05T00:30:22;101505.0;;;23.34;23.64
48530;BME280;34927;37.302;-121.982;2023-04-05T00:31:26;101505.0;;;23.37;23.60
48530;BME280;34927;37.302;-121.982;2023-04-05T00:32:32;101503.0;;;23.37;23.60
48530;BME280;34927;37.302;-121.982;2023-04-05T00:33:36;101503.0;;;23.33;23.66
48530;BME280;34927;37.302;-121.982;2023-04-05T00:34:42;101502.0;;;23.36;23.67
48530;BME280;34927;37.302;-121.982;2023-04-05T00:35:47;101502.0;;;23.31;23.73
48530;BME280;34927;37.302;-121.982;2023-04-05T00:36:51;101503.0;;;23.32;23.69
48530;BME280;34927;37.302;-121.982;2023-04-05T00:37:57;101502.0;;;23.30;23.73
48530;BME280;34927;37.302;-121.982;2023-04-05T00:39:02;101503.0;;;23.33;23.73
48530;BME280;34927;37.302;-121.982;2023-04-05T00:40:08;101505.0;;;23.31;23.76
48530;BME280;34927;37.302;-121.982;2023-04-05T00:41:18;101504.0;;;23.33;23.75
48530;BME280;34927;37.302;-121.982;2023-04-05T00:42:22;101505.0;;;23.29;23.85
48530;BME280;34927;37.302;-121.982;2023-04-05T00:43:27;101507.0;;;23.26;23.95
48530;BME280;34927;37.302;-121.982;2023-04-05T00:44:32;101505.0;;;23.23;23.96
48530;BME280;34927;37.302;-121.982;2023-04-05T00:45:37;101503.0;;;23.13;24.07
48530;BME280;34927;37.302;-121.982;2023-04-05T00:46:41;101505.0;;;23.08;24.11
48530;BME280;34927;37.302;-121.982;2023-04-05T00:47:47;101506.0;;;23.07;24.17
48530;BME280;34927;37.302;-121.982;2023-04-05T00:48:51;101504.0;;;23.01;24.27
48530;BME280;34927;37.302;-121.982;2023-04-05T00:49:57;101505.0;;;22.97;24.25
48530;BME280;34927;37.302;-121.982;2023-04-05T00:51:01;101506.0;;;22.96;24.31
48530;BME280;34927;37.302;-121.982;2023-04-05T00:52:07;101506.0;;;22.98;24.31
48530;BME280;34927;37.302;-121.982;2023-04-05T00:53:12;101506.0;;;22.96;24.34
48530;BME280;34927;37.302;-121.982;2023-04-05T00:54:18;101505.0;;;22.96;24.33
48530;BME280;34927;37.302;-121.982;2023-04-05T00:55:22;101506.0;;;22.93;24.34
48530;BME280;34927;37.302;-121.982;2023-04-05T00:56:27;101509.0;;;22.92;24.30
48530;BME280;34927;37.302;-121.982;2023-04-05T00:57:32;101512.0;;;22.91;24.40
48530;BME280;34927;37.302;-121.982;2023-04-05T00:58:36;101512.0;;;22.92;23.95
48530;BME280;34927;37.302;-121.982;2023-04-05T00:59:41;101511.0;;;22.92;24.11
48530;BME280;34927;37.302;-121.982;2023-04-05T01:00:55;101508.0;;;23.08;24.13
48530;BME280;34927;37.302;-121.982;2023-04-05T01:02:07;101508.0;;;23.29;23.94
48530;BME280;34927;37.302;-121.982;2023-04-05T01:03:16;101507.0;;;23.60;23.72
48530;BME280;34927;37.302;-121.982;2023-04-05T01:04:24;101510.0;;;23.83;23.52
48530;BME280;34927;37.302;-121.982;2023-04-05T01:05:37;101510.0;;;24.09;23.25
48530;BME280;34927;37.302;-121.982;2023-04-05T01:06:55;101514.0;;;24.41;23.02
48530;BME280;34927;37.302;-121.982;2023-04-05T01:08:10;101516.0;;;24.64;22.79
48530;BME280;34927;37.302;-121.982;2023-04-05T01:09:27;101516.0;;;24.69;22.75
48530;BME280;34927;37.302;-121.982;2023-04-05T01:10:41;101520.0;;;24.64;22.75
48530;BME280;34927;37.302;-121.982;2023-04-05T01:11:47;101520.0;;;24.62;22.83
48530;BME280;34927;37.302;-121.982;2023-04-05T01:12:51;101521.0;;;24.59;22.93
48530;BME280;34927;37.302;-121.982;2023-04-05T01:13:58;101520.0;;;24.29;23.17
48530;BME280;34927;37.302;-121.982;2023-04-05T01:15:02;101518.0;;;24.16;23.32
48530;BME280;34927;37.302;-121.982;2023-04-05T01:16:06;101516.0;;;24.10;23.41
48530;BME280;34927;37.302;-121.982;2023-04-05T01:17:12;101513.0;;;23.95;23.45
48530;BME280;34927;37.302;-121.982;2023-04-05T01:18:17;101516.0;;;23.89;23.57
48530;BME280;34927;37.302;-121.982;2023-04-05T01:19:22;101513.0;;;23.81;23.67
48530;BME280;34927;37.302;-121.982;2023-04-05T01:20:37;101514.0;;;23.75;23.59
48530;BME280;34927;37.302;-121.982;2023-04-05T01:22:02;101514.0;;;23.77;23.82
48530;BME280;34927;37.302;-121.982;2023-04-05T01:23:27;101515.0;;;24.04;23.64
48530;BME280;34927;37.302;-121.982;2023-04-05T01:24:43;101519.0;;;24.31;23.40
48530;BME280;34927;37.302;-121.982;2023-04-05T01:26:12;101520.0;;;24.57;23.15
48530;BME280;34927;37.302;-121.982;2023-04-05T01:27:20;101522.0;;;24.86;22.85
48530;BME280;34927;37.302;-121.982;2023-04-05T01:28:45;101523.0;;;24.93;22.79
48530;BME280;34927;37.302;-121.982;2023-04-05T01:29:57;101528.0;;;24.85;22.78
48530;BME280;34927;37.302;-121.982;2023-04-05T01:31:09;101528.0;;;24.82;22.84
48530;BME280;34927;37.302;-121.982;2023-04-05T01:32:25;101526.0;;;24.68;23.13
48530;BME280;34927;37.302;-121.982;2023-04-05T01:33:37;101527.0;;;24.55;23.17
48530;BME280;34927;37.302;-121.982;2023-04-05T01:34:48;101527.0;;;24.41;23.34
48530;BME280;34927;37.302;-121.982;2023-04-05T01:35:57;101527.0;;;24.19;23.54
48530;BME280;34927;37.302;-121.982;2023-04-05T01:37:05;101524.0;;;24.06;23.78
48530;BME280;34927;37.302;-121.982;2023-04-05T01:38:15;101526.0;;;23.92;23.89
48530;BME280;34927;37.302;-121.982;2023-04-05T01:39:23;101525.0;;;23.84;24.04
48530;BME280;34927;37.302;-121.982;2023-04-05T01:40:27;101527.0;;;23.79;24.19
48530;BME280;34927;37.302;-121.982;2023-04-05T01:41:32;101528.0;;;23.76;24.17
48530;BME280;34927;37.302;-121.982;2023-04-05T01:42:37;101531.0;;;23.71;24.12
48530;BME280;34927;37.302;-121.982;2023-04-05T01:43:42;101530.0;;;23.70;24.13
48530;BME280;34927;37.302;-121.982;2023-04-05T01:44:46;101532.0;;;23.65;24.14
48530;BME280;34927;37.302;-121.982;2023-04-05T01:45:51;101531.0;;;23.54;24.28
48530;BME280;34927;37.302;-121.982;2023-04-05T01:46:57;101530.0;;;23.54;24.36
48530;BME280;34927;37.302;-121.982;2023-04-05T01:48:02;101527.0;;;23.50;24.30
48530;BME280;34927;37.302;-121.982;2023-04-05T01:49:07;101527.0;;;23.57;24.37
48530;BME280;34927;37.302;-121.982;2023-04-05T01:50:11;101530.0;;;23.71;24.35
48530;BME280;34927;37.302;-121.982;2023-04-05T01:51:17;101531.0;;;24.00;24.17
48530;BME280;34927;37.302;-121.982;2023-04-05T01:52:22;101533.0;;;24.19;23.97
48530;BME280;34927;37.302;-121.982;2023-04-05T01:53:27;101534.0;;;24.42;23.69
48530;BME280;34927;37.302;-121.982;2023-04-05T01:54:32;101536.0;;;24.48;23.58
48530;BME280;34927;37.302;-121.982;2023-04-05T01:55:36;101535.0;;;24.45;23.54
48530;BME280;34927;37.302;-121.982;2023-04-05T01:56:42;101539.0;;;24.48;23.41
48530;BME280;34927;37.302;-121.982;2023-04-05T01:57:47;101538.0;;;24.32;23.63
48530;BME280;34927;37.302;-121.982;2023-04-05T01:58:52;101542.0;;;24.23;23.67
48530;BME280;34927;37.302;-121.982;2023-04-05T01:59:57;101540.0;;;24.12;23.74
48530;BME280;34927;37.302;-121.982;2023-04-05T02:01:01;101544.0;;;24.04;23.88
48530;BME280;34927;37.302;-121.982;2023-04-05T02:02:07;101540.0;;;23.95;23.56
48530;BME280;34927;37.302;-121.982;2023-04-05T02:03:11;101546.0;;;23.86;23.85
48530;BME280;34927;37.302;-121.982;2023-04-05T02:04:17;101543.0;;;23.75;23.97
48530;BME280;34927;37.302;-121.982;2023-04-05T02:05:21;101546.0;;;23.69;24.03
48530;BME280;34927;37.302;-121.982;2023-04-05T02:06:26;101542.0;;;23.63;24.17
48530;BME280;34927;37.302;-121.982;2023-04-05T02:07:32;101547.0;;;23.56;24.37
48530;BME280;34927;37.302;-121.982;2023-04-05T02:08:37;101545.0;;;23.52;24.42
48530;BME280;34927;37.302;-121.982;2023-04-05T02:09:41;101548.0;;;23.47;24.42
48530;BME280;34927;37.302;-121.982;2023-04-05T02:10:46;101548.0;;;23.41;24.45
48530;BME280;34927;37.302;-121.982;2023-04-05T02:11:52;101545.0;;;23.39;23.96
48530;BME280;34927;37.302;-121.982;2023-04-05T02:12:56;101544.0;;;23.42;24.09
48530;BME280;34927;37.302;-121.982;2023-04-05T02:14:02;101543.0;;;23.57;24.04
48530;BME280;34927;37.302;-121.982;2023-04-05T02:15:08;101538.0;;;23.83;23.90
48530;BME280;34927;37.302;-121.982;2023-04-05T02:16:11;101540.0;;;24.09;23.68
48530;BME280;34927;37.302;-121.982;2023-04-05T02:17:17;101538.0;;;24.31;23.54
48530;BME280;34927;37.302;-121.982;2023-04-05T02:18:21;101542.0;;;24.36;23.48
48530;BME280;34927;37.302;-121.982;2023-04-05T02:19:26;101544.0;;;24.36;23.42
48530;BME280;34927;37.302;-121.982;2023-04-05T02:20:32;101543.0;;;24.29;23.52
48530;BME280;34927;37.302;-121.982;2023-04-05T02:21:37;101542.0;;;24.20;23.65
48530;BME280;34927;37.302;-121.982;2023-04-05T02:22:42;101543.0;;;24.05;24.01
48530;BME280;34927;37.302;-121.982;2023-04-05T02:23:46;101544.0;;;23.96;24.19
48530;BME280;34927;37.302;-121.982;2023-04-05T02:24:51;101543.0;;;23.90;24.07
48530;BME280;34927;37.302;-121.982;2023-04-05T02:25:57;101541.0;;;23.81;24.24
48530;BME280;34927;37.302;-121.982;2023-04-05T02:27:08;101542.0;;;23.74;24.31
48530;BME280;34927;37.302;-121.982;2023-04-05T02:28:12;101543.0;;;23.67;24.51
48530;BME280;34927;37.302;-121.982;2023-04-05T02:29:17;101542.0;;;23.67;24.70
48530;BME280;34927;37.302;-121.982;2023-04-05T02:30:22;101543.0;;;23.74;25.07
48530;BME280;34927;37.302;-121.982;2023-04-05T02:31:27;101543.0;;;23.88;25.13
48530;BME280;34927;37.302;-121.982;2023-04-05T02:32:31;101545.0;;;23.95;25.31
48530;BME280;34927;37.302;-121.982;2023-04-05T02:33:37;101547.0;;;23.92;25.57
48530;BME280;34927;37.302;-121.982;2023-04-05T02:34:42;101546.0;;;23.82;25.71
48530;BME280;34927;37.302;-121.982;2023-04-05T02:35:48;101547.0;;;23.73;25.89
48530;BME280;34927;37.302;-121.982;2023-04-05T02:36:53;101545.0;;;23.69;26.07
48530;BME280;34927;37.302;-121.982;2023-04-05T02:37:57;101549.0;;;23.82;25.97
48530;BME280;34927;37.302;-121.982;2023-04-05T02:39:02;101550.0;;;23.62;26.34
48530;BME280;34927;37.302;-121.982;2023-04-05T02:40:11;101554.0;;;23.55;26.70
48530;BME280;34927;37.302;-121.982;2023-04-05T02:41:17;101555.0;;;23.64;26.47
48530;BME280;34927;37.302;-121.982;2023-04-05T02:42:21;101555.0;;;23.57;26.46
48530;BME280;34927;37.302;-121.982;2023-04-05T02:43:27;101557.0;;;23.60;26.59
48530;BME280;34927;37.302;-121.982;2023-04-05T02:44:31;101560.0;;;23.49;26.90
48530;BME280;34927;37.302;-121.982;2023-04-05T02:45:37;101561.0;;;23.48;26.92
48530;BME280;34927;37.302;-121.982;2023-04-05T02:46:49;101565.0;;;23.47;27.08
48530;BME280;34927;37.302;-121.982;2023-04-05T02:47:52;101562.0;;;23.38;27.16
48530;BME280;34927;37.302;-121.982;2023-04-05T02:48:57;101565.0;;;23.31;27.03
48530;BME280;34927;37.302;-121.982;2023-04-05T02:50:02;101564.0;;;23.28;27.36
48530;BME280;34927;37.302;-121.982;2023-04-05T02:51:07;101566.0;;;23.27;27.23
48530;BME280;34927;37.302;-121.982;2023-04-05T02:52:12;101567.0;;;23.35;27.11
48530;BME280;34927;37.302;-121.982;2023-04-05T02:53:17;101568.0;;;23.52;26.85
48530;BME280;34927;37.302;-121.982;2023-04-05T02:54:21;101564.0;;;23.74;26.52
48530;BME280;34927;37.302;-121.982;2023-04-05T02:55:27;101566.0;;;23.90;26.16
48530;BME280;34927;37.302;-121.982;2023-04-05T02:56:31;101568.0;;;24.01;25.94
48530;BME280;34927;37.302;-121.982;2023-04-05T02:57:36;101567.0;;;24.00;25.90
48530;BME280;34927;37.302;-121.982;2023-04-05T02:58:42;101568.0;;;23.86;26.02
48530;BME280;34927;37.302;-121.982;2023-04-05T02:59:46;101567.0;;;23.75;26.16
48530;BME280;34927;37.302;-121.982;2023-04-05T03:00:52;101570.0;;;23.60;26.25
48530;BME280;34927;37.302;-121.982;2023-04-05T03:01:56;101570.0;;;23.45;26.46
48530;BME280;34927;37.302;-121.982;2023-04-05T03:03:02;101571.0;;;23.38;26.53
48530;BME280;34927;37.302;-121.982;2023-04-05T03:04:06;101572.0;;;23.32;26.67
48530;BME280;34927;37.302;-121.982;2023-04-05T03:05:12;101572.0;;;23.23;26.79
48530;BME280;34927;37.302;-121.982;2023-04-05T03:06:17;101573.0;;;23.20;26.84
48530;BME280;34927;37.302;-121.982;2023-04-05T03:07:21;101574.0;;;23.16;26.92
48530;BME280;34927;37.302;-121.982;2023-04-05T03:08:26;101574.0;;;23.09;26.91
48530;BME280;34927;37.302;-121.982;2023-04-05T03:09:32;101574.0;;;23.07;26.98
48530;BME280;34927;37.302;-121.982;2023-04-05T03:10:36;101577.0;;;23.05;27.02
48530;BME280;34927;37.302;-121.982;2023-04-05T03:11:41;101578.0;;;22.99;27.08
48530;BME280;34927;37.302;-121.982;2023-04-05T03:12:47;101580.0;;;22.94;27.18
48530;BME280;34927;37.302;-121.982;2023-04-05T03:13:52;101581.0;;;22.90;27.24
48530;BME280;34927;37.302;-121.982;2023-04-05T03:14:56;101582.0;;;22.83;27.39
48530;BME280;34927;37.302;-121.982;2023-04-05T03:16:02;101581.0;;;22.85;27.40
48530;BME280;34927;37.302;-121.982;2023-04-05T03:17:06;101586.0;;;22.83;27.10
48530;BME280;34927;37.302;-121.982;2023-04-05T03:18:11;101583.0;;;22.66;28.20
48530;BME280;34927;37.302;-121.982;2023-04-05T03:19:16;101586.0;;;22.59;28.44
48530;BME280;34927;37.302;-121.982;2023-04-05T03:20:22;101587.0;;;22.60;28.49
48530;BME280;34927;37.302;-121.982;2023-04-05T03:21:26;101588.0;;;22.47;29.14
48530;BME280;34927;37.302;-121.982;2023-04-05T03:22:31;101587.0;;;22.37;29.04
48530;BME280;34927;37.302;-121.982;2023-04-05T03:23:37;101588.0;;;22.72;28.04
48530;BME280;34927;37.302;-121.982;2023-04-05T03:24:42;101593.0;;;22.97;27.75
48530;BME280;34927;37.302;-121.982;2023-04-05T03:25:46;101590.0;;;23.21;27.51
48530;BME280;34927;37.302;-121.982;2023-04-05T03:26:52;101594.0;;;23.47;26.93
48530;BME280;34927;37.302;-121.982;2023-04-05T03:27:57;101594.0;;;23.71;26.57
48530;BME280;34927;37.302;-121.982;2023-04-05T03:29:01;101594.0;;;23.76;26.34
48530;BME280;34927;37.302;-121.982;2023-04-05T03:30:08;101598.0;;;23.72;26.31
48530;BME280;34927;37.302;-121.982;2023-04-05T03:31:12;101600.0;;;23.70;26.32
48530;BME280;34927;37.302;-121.982;2023-04-05T03:32:17;101602.0;;;23.80;26.13
48530;BME280;34927;37.302;-121.982;2023-04-05T03:33:22;101604.0;;;23.68;26.19
48530;BME280;34927;37.302;-121.982;2023-04-05T03:34:27;101607.0;;;23.63;26.26
48530;BME280;34927;37.302;-121.982;2023-04-05T03:35:31;101609.0;;;23.32;26.58
48530;BME280;34927;37.302;-121.982;2023-04-05T03:36:36;101610.0;;;23.12;26.94
48530;BME280;34927;37.302;-121.982;2023-04-05T03:37:41;101611.0;;;22.88;27.47
48530;BME280;34927;37.302;-121.982;2023-04-05T03:38:46;101611.0;;;22.77;27.73
48530;BME280;34927;37.302;-121.982;2023-04-05T03:39:52;101610.0;;;22.43;28.50
48530;BME280;34927;37.302;-121.982;2023-04-05T03:40:57;101609.0;;;22.43;28.50
48530;BME280;34927;37.302;-121.982;2023-04-05T03:42:01;101611.0;;;22.51;28.42
48530;BME280;34927;37.302;-121.982;2023-04-05T03:43:07;101613.0;;;22.32;28.83
48530;BME280;34927;37.302;-121.982;2023-04-05T03:44:11;101614.0;;;22.32;28.92
48530;BME280;34927;37.302;-121.982;2023-04-05T03:45:16;101615.0;;;22.31;28.95
48530;BME280;34927;37.302;-121.982;2023-04-05T03:46:21;101614.0;;;22.32;29.04
48530;BME280;34927;37.302;-121.982;2023-04-05T03:47:27;101613.0;;;22.28;29.18
48530;BME280;34927;37.302;-121.982;2023-04-05T03:48:32;101615.0;;;22.26;29.38
48530;BME280;34927;37.302;-121.982;2023-04-05T03:49:37;101618.0;;;22.18;29.72
48530;BME280;34927;37.302;-121.982;2023-04-05T03:50:41;101615.0;;;22.25;29.63
48530;BME280;34927;37.302;-121.982;2023-04-05T03:51:48;101613.0;;;22.41;29.66
48530;BME280;34927;37.302;-121.982;2023-04-05T03:52:52;101615.0;;;22.64;29.55
48530;BME280;34927;37.302;-121.982;2023-04-05T03:53:56;101618.0;;;22.88;29.38
48530;BME280;34927;37.302;-121.982;2023-04-05T03:55:02;101619.0;;;23.09;29.08
48530;BME280;34927;37.302;-121.982;2023-04-05T03:56:07;101620.0;;;23.33;28.77
48530;BME280;34927;37.302;-121.982;2023-04-05T03:57:11;101620.0;;;23.42;28.62
48530;BME280;34927;37.302;-121.982;2023-04-05T03:58:16;101622.0;;;23.46;28.40
48530;BME280;34927;37.302;-121.982;2023-04-05T03:59:22;101624.0;;;23.45;28.22
48530;BME280;34927;37.302;-121.982;2023-04-05T04:00:27;101628.0;;;23.29;28.41
48530;BME280;34927;37.302;-121.982;2023-04-05T04:01:32;101629.0;;;23.01;28.71
48530;BME280;34927;37.302;-121.982;2023-04-05T04:02:37;101629.0;;;22.87;29.01
48530;BME280;34927;37.302;-121.982;2023-04-05T04:03:41;101629.0;;;22.75;29.17
48530;BME280;34927;37.302;-121.982;2023-04-05T04:04:48;101630.0;;;22.63;29.45
48530;BME280;34927;37.302;-121.982;2023-04-05T04:05:52;101631.0;;;22.58;29.56
48530;BME280;34927;37.302;-121.982;2023-04-05T04:06:57;101632.0;;;22.57;29.58
48530;BME280;34927;37.302;-121.982;2023-04-05T04:08:01;101631.0;;;22.46;29.66
48530;BME280;34927;37.302;-121.982;2023-04-05T04:09:07;101633.0;;;22.42;29.72
48530;BME280;34927;37.302;-121.982;2023-04-05T04:10:13;101635.0;;;22.37;29.97
48530;BME280;34927;37.302;-121.982;2023-04-05T04:11:16;101635.0;;;22.19;30.23
48530;BME280;34927;37.302;-121.982;2023-04-05T04:12:21;101635.0;;;22.20;30.33
48530;BME280;34927;37.302;-121.982;2023-04-05T04:13:27;101635.0;;;22.05;30.64
48530;BME280;34927;37.302;-121.982;2023-04-05T04:14:34;101636.0;;;22.03;30.73
48530;BME280;34927;37.302;-121.982;2023-04-05T04:15:37;101635.0;;;22.11;30.51
48530;BME280;34927;37.302;-121.982;2023-04-05T04:16:41;101632.0;;;22.32;30.19
48530;BME280;34927;37.302;-121.982;2023-04-05T04:17:46;101634.0;;;22.40;30.15
48530;BME280;34927;37.302;-121.982;2023-04-05T04:18:51;101633.0;;;22.51;30.11
48530;BME280;34927;37.302;-121.982;2023-04-05T04:19:57;101636.0;;;22.70;29.95
48530;BME280;34927;37.302;-121.982;2023-04-05T04:21:02;101638.0;;;22.99;29.71
48530;BME280;34927;37.302;-121.982;2023-04-05T04:22:06;101641.0;;;23.24;29.35
48530;BME280;34927;37.302;-121.982;2023-04-05T04:23:18;101640.0;;;23.51;28.89
48530;BME280;34927;37.302;-121.982;2023-04-05T04:24:22;101644.0;;;23.52;28.77
48530;BME280;34927;37.302;-121.982;2023-04-05T04:25:27;101646.0;;;23.63;28.58
48530;BME280;34927;37.302;-121.982;2023-04-05T04:26:32;101647.0;;;23.54;28.52
48530;BME280;34927;37.302;-121.982;2023-04-05T04:27:37;101650.0;;;23.45;28.60
48530;BME280;34927;37.302;-121.982;2023-04-05T04:28:41;101648.0;;;23.21;28.98
48530;BME280;34927;37.302;-121.982;2023-04-05T04:29:46;101649.0;;;23.19;29.01
48530;BME280;34927;37.302;-121.982;2023-04-05T04:30:51;101649.0;;;23.07;29.02
48530;BME280;34927;37.302;-121.982;2023-04-05T04:31:56;101648.0;;;22.86;29.32
48530;BME280;34927;37.302;-121.982;2023-04-05T04:33:01;101647.0;;;22.70;29.41
48530;BME280;34927;37.302;-121.982;2023-04-05T04:34:06;101646.0;;;22.71;29.41
48530;BME280;34927;37.302;-121.982;2023-04-05T04:35:12;101647.0;;;22.74;29.23
48530;BME280;34927;37.302;-121.982;2023-04-05T04:36:17;101647.0;;;22.83;29.14
48530;BME280;34927;37.302;-121.982;2023-04-05T04:37:22;101644.0;;;22.65;29.30
48530;BME280;34927;37.302;-121.982;2023-04-05T04:38:27;101642.0;;;22.69;29.31
48530;BME280;34927;37.302;-121.982;2023-04-05T04:39:32;101644.0;;;22.66;29.32
48530;BME280;34927;37.302;-121.982;2023-04-05T04:40:37;101644.0;;;22.57;29.40
48530;BME280;34927;37.302;-121.982;2023-04-05T04:41:44;101644.0;;;22.62;29.17
48530;BME280;34927;37.302;-121.982;2023-04-05T04:42:47;101645.0;;;22.67;29.39
48530;BME280;34927;37.302;-121.982;2023-04-05T04:43:52;101650.0;;;22.84;29.28
48530;BME280;34927;37.302;-121.982;2023-04-05T04:44:56;101650.0;;;22.98;29.22
48530;BME280;34927;37.302;-121.982;2023-04-05T04:46:01;101653.0;;;23.24;28.89
48530;BME280;34927;37.302;-121.982;2023-04-05T04:47:07;101653.0;;;23.53;28.46
48530;BME280;34927;37.302;-121.982;2023-04-05T04:48:12;101655.0;;;23.73;28.13
48530;BME280;34927;37.302;-121.982;2023-04-05T04:49:16;101655.0;;;23.70;28.08
48530;BME280;34927;37.302;-121.982;2023-04-05T04:50:21;101656.0;;;23.65;28.14
48530;BME280;34927;37.302;-121.982;2023-04-05T04:51:26;101657.0;;;23.59;28.10
48530;BME280;34927;37.302;-121.982;2023-04-05T04:52:33;101659.0;;;23.27;28.46
48530;BME280;34927;37.302;-121.982;2023-04-05T04:53:37;101660.0;;;23.18;28.67
48530;BME280;34927;37.302;-121.982;2023-04-05T04:54:41;101661.0;;;23.06;28.80
48530;BME280;34927;37.302;-121.982;2023-04-05T04:55:47;101660.0;;;22.87;29.05
48530;BME280;34927;37.302;-121.982;2023-04-05T04:56:52;101659.0;;;22.92;28.94
48530;BME280;34927;37.302;-121.982;2023-04-05T04:57:56;101660.0;;;22.92;28.96
48530;BME280;34927;37.302;-121.982;2023-04-05T04:59:02;101659.0;;;22.93;28.90
48530;BME280;34927;37.302;-121.982;2023-04-05T05:00:08;101659.0;;;22.96;28.84
48530;BME280;34927;37.302;-121.982;2023-04-05T05:01:13;101656.0;;;22.77;29.00
48530;BME280;34927;37.302;-121.982;2023-04-05T05:02:16;101653.0;;;22.72;29.05
48530;BME280;34927;37.302;-121.982;2023-04-05T05:03:21;101655.0;;;22.75;29.01
48530;BME280;34927;37.302;-121.982;2023-04-05T05:04:26;101651.0;;;22.65;28.87
48530;BME280;34927;37.302;-121.982;2023-04-05T05:05:31;101655.0;;;22.66;29.24
48530;BME280;34927;37.302;-121.982;2023-04-05T05:06:37;101656.0;;;22.81;29.14
48530;BME280;34927;37.302;-121.982;2023-04-05T05:07:42;101657.0;;;22.98;29.02
48530;BME280;34927;37.302;-121.982;2023-04-05T05:08:47;101658.0;;;23.22;28.73
48530;BME280;34927;37.302;-121.982;2023-04-05T05:09:52;101657.0;;;23.53;28.35
48530;BME280;34927;37.302;-121.982;2023-04-05T05:10:57;101654.0;;;23.77;27.97
48530;BME280;34927;37.302;-121.982;2023-04-05T05:12:02;101651.0;;;23.82;27.76
48530;BME280;34927;37.302;-121.982;2023-04-05T05:13:07;101653.0;;;23.76;27.74
48530;BME280;34927;37.302;-121.982;2023-04-05T05:14:12;101652.0;;;23.60;28.11
48530;BME280;34927;37.302;-121.982;2023-04-05T05:15:16;101656.0;;;23.46;28.21
48530;BME280;34927;37.302;-121.982;2023-04-05T05:16:22;101653.0;;;23.13;28.68
48530;BME280;34927;37.302;-121.982;2023-04-05T05:17:26;101653.0;;;23.09;28.90
48530;BME280;34927;37.302;-121.982;2023-04-05T05:18:33;101656.0;;;23.07;28.80
48530;BME280;34927;37.302;-121.982;2023-04-05T05:19:37;101655.0;;;23.04;28.88
48530;BME280;34927;37.302;-121.982;2023-04-05T05:20:42;101654.0;;;22.97;28.83
48530;BME280;34927;37.302;-121.982;2023-04-05T05:21:46;101653.0;;;22.91;28.86
48530;BME280;34927;37.302;-121.982;2023-04-05T05:22:52;101653.0;;;22.90;28.94
48530;BME280;34927;37.302;-121.982;2023-04-05T05:23:57;101653.0;;;22.94;28.72
48530;BME280;34927;37.302;-121.982;2023-04-05T05:25:02;101651.0;;;22.80;28.99
48530;BME280;34927;37.302;-121.982;2023-04-05T05:26:06;101649.0;;;22.76;28.93
48530;BME280;34927;37.302;-121.982;2023-04-05T05:27:12;101647.0;;;22.70;28.81
48530;BME280;34927;37.302;-121.982;2023-04-05T05:28:16;101646.0;;;22.67;29.04
48530;BME280;34927;37.302;-121.982;2023-04-05T05:29:21;101646.0;;;22.72;28.92
48530;BME280;34927;37.302;-121.982;2023-04-05T05:30:27;101646.0;;;22.65;29.15
48530;BME280;34927;37.302;-121.982;2023-04-05T05:31:32;101644.0;;;22.43;29.35
48530;BME280;34927;37.302;-121.982;2023-04-05T05:32:37;101642.0;;;22.46;29.38
48530;BME280;34927;37.302;-121.982;2023-04-05T05:33:41;101642.0;;;22.46;29.29
48530;BME280;34927;37.302;-121.982;2023-04-05T05:34:46;101643.0;;;22.63;29.06